• Join FlightAware (Why Join?)
  • Login
  • US Flag 
02:51PM EDT


 

Airport Tracker/Info


-or-


 

Live Flight TrackerFlight Track Log ✈ SWA1903 ✈ 16-May-2013 ✈ KORF - KBWI

Flight Track Log - Related Links

Times and Time Zones

All times are in EDT time to prevent confusion due to time zone crossing. See the SWA1903 flight status page for this flight to view local times or setup timezone preferences in your user account.

Time Position Orientation Groundspeed Altitude Reporting Facility
EDT Latitude Longitude Course Direction KTS MPH feet Rate Location/Type
06:09AM 36.8889 -76.2100 209° Southwest 160 184 700  Level Washington Center
06:10AM 36.8406 -76.2433 209° Southwest 213 245 4,100 3,000 Climbing Washington Center
06:11AM 36.8464 -76.3133 276° West 269 310 7,100 3,600 Climbing Washington Center
06:12AM 36.8817 -76.3631 312° West 320 368 10,400 4,020 Climbing Washington Center
06:12AM 36.8919 -76.3867 299° West 283 326 11,200 3,900 Climbing Washington Center
06:13AM 36.9311 -76.4467 309° West 308 354 14,400 4,200 Climbing Washington Center
06:13AM 36.9436 -76.4728 301° West 329 379 15,400 1,560 Climbing Washington Center
06:14AM 36.9867 -76.5408 308° West 314 361 16,000 660 Climbing Washington Center
06:14AM 37.0011 -76.5722 300° West 334 384 16,100  Climbing Washington Center
06:15AM 37.0403 -76.6328 309° West 327 376 16,000  Descending Washington Center
06:15AM 37.0608 -76.6642 309° West 329 379 16,100  Climbing Washington Center
06:16AM 37.0958 -76.7244 306° West 327 376 16,000  Descending Washington Center
06:16AM 37.1142 -76.7561 306° West 327 376 16,100 60 Climbing Washington Center
06:17AM 37.1717 -76.8508 307° West 348 400 16,100 -60 Level Washington Center
06:18AM 37.2086 -76.9167 305° West 338 389 16,000  Descending Washington Center
06:18AM 37.2311 -76.9586 304° West 352 405 16,100  Climbing Washington Center
06:19AM 37.2636 -77.0167 305° West 348 400 16,000  Descending Washington Center
06:19AM 37.2906 -77.0536 313° West 348 400 16,100  Climbing Washington Center
06:20AM 37.3169 -77.1039 303° West 357 411 16,000  Descending Washington Center
06:20AM 37.3581 -77.1544 316° Northwest 351 404 16,100  Climbing Washington Center
06:21AM 37.3828 -77.1811 319° Northwest 357 411 16,000 -120 Descending Washington Center
06:22AM 37.4606 -77.2742 316° Northwest 352 405 16,000  Level Washington Center
06:23AM 37.5539 -77.3181 340° North 346 398 16,000  Level Washington Center
06:24AM 37.6564 -77.2917 12° North 341 392 16,000  Level Washington Center
06:25AM 37.7611 -77.2703 North 359 413 16,000  Level Washington Center
06:26AM 37.8636 -77.2464 10° North 370 426 16,000  Level Washington Center
06:27AM 37.9661 -77.2247 North 370 426 16,000  Level Washington Center
06:28AM 38.0789 -77.2061 North 370 426 16,000 -180 Level Washington Center
06:29AM 38.1814 -77.1844 North 370 426 15,700 -660 Descending Washington Center
06:30AM 38.2839 -77.1550 13° North 370 426 14,700 -960 Descending Washington Center
06:31AM 38.3822 -77.1333 10° North 365 420 13,800 -960 Descending Washington Center
06:32AM 38.4583 -77.0447 42° Northeast 351 404 12,800 -960 Descending Washington Center
06:33AM 38.5344 -76.9533 43° Northeast 351 404 11,900 -1,140 Descending Washington Center
06:34AM 38.6086 -76.8642 43° Northeast 356 410 10,600 -1,080 Descending Washington Center
06:35AM 38.6739 -76.7856 43° Northeast 343 395 9,800 -900 Descending Washington Center
06:36AM 38.7228 -76.7011 53° Northeast 318 366 8,800 -1,260 Descending Washington Center
06:37AM 38.7667 -76.6167 56° Northeast 289 333 7,500 -1,440 Descending Potomac TRACON
06:37AM 38.8000 -76.5333 63° Northeast 280 322 6,300 -1,320 Descending Potomac TRACON
06:38AM 38.8500 -76.5333 360° North 242 278 5,200 -960 Descending Potomac TRACON
06:39AM 38.9167 -76.5500 349° North 207 238 4,400 -600 Descending Potomac TRACON
06:40AM 38.9667 -76.5667 345° North 195 224 4,100 -780 Descending Potomac TRACON
06:41AM 39.0333 -76.5833 349° North 201 231 3,000 -900 Descending Potomac TRACON
06:42AM 39.0833 -76.6000 345° North 167 192 2,300 -840 Descending Potomac TRACON
06:43AM 39.1000 -76.6167 322° Northwest 138 159 1,500 -780 Descending Potomac TRACON
06:44AM 39.1333 -76.6333 339° North 116 133 900 -600 Descending Potomac TRACON
06:46AM 39.1667 -76.6667 339° North  Level FlightAware Approximate
06:53AM 39.1754 -76.6683 339° North  Level Estimated
06:54AM 39.1754 -76.6683 339° North  Level Estimated
06:55AM 39.1754 -76.6683 339° North  Level Estimated